aviador You're here:

YPPD Decoded Metar

PORT HEDLAND in AUSTRALIA
Report Time2017-03-23 02:00:00
UTC Time2017-03-23 02:18:29
Flight Rules ifr IFR
Wind110° at 15 kt
W.Decomp.*RWY 14: 12.9 kt HW 7.7 kt LCW
RWY 18: 4.9 kt HW 14.2 kt LCW
W.Rank110° ranks 5
Current wind is above 110° avg. (11.5)
Visibility3000 m
Phenomena:Vicinity showers
Clouds:Few 005 Hf
Scattered 015 Hf
Broken 025 Hf
Ceiling2,500 ft
Temp26°C (ISA +11)
Dew Point26°C (100% RH)
QNH1000 hPa
Density Alt2,175 ft
Elevation20 ft
Report Wrong Elevation
Raw Report
METAR YPPD 230200Z 11015KT 8000 3000N VCSH FEW005 SCT015 BKN025 26/26 Q1000=

Extra information for YPPD:More info

Metar Taf Metar & Taf Last 4 Metars F.Rules Stats Wind Profile Meteogram Temp Stats Airport Information Weather charts Add Link Nearby VenuesMetar ALERT Operation Metar Decoded Social comments